Triathlon des Moines - Fourmies 2020

Epreuve sélectionnée:


Triathlon S Full - Résultats Scratch

Filtre:

Partants Général Top 5



Recherche:

N° dossard
Nom
Club
Triathlon S Full - Classement arrivée
Clt Athlète Nat. Club Temps Sexe Cat Swim T1 Bike T2 Run
0 108 ADANT Jean 00:00:00 M (0e) Master (0e) 00:15:31 (176e) 00:03:49 (195e) 00:38:03 (100e) 00:01:58 (174e) 00:23:07 (103e)
0 95 ANDRE Christophe 00:00:00 M (0e) Master (0e) 00:14:20 (163e) 00:02:40 (183e) 00:41:04 (130e) 00:02:07 (177e) 00:27:22 (165e)
0 121 ANTONIO Remi 00:00:00 M (0e) Senior (0e) 00:11:58 (118e) 00:01:22 (114e) 00:35:32 (63e) 00:01:04 (72e) 00:21:53 (74e)
0 81 BRZEZINSKI Sasha 00:00:00 M (0e) Cadet (0e) 00:11:15 (97e) 00:01:28 (124e) 00:36:41 (81e) 00:01:24 (127e) 00:20:30 (54e)
0 98 BRZEZINSKI Vincent 00:00:00 M (0e) Master (0e) 00:11:55 (116e) 00:01:58 (149e) 00:39:09 (111e) 00:01:34 (145e) 00:21:10 (61e)
0 28 BURIE Emmanuelle 00:00:00 F (0e) Master (0e) 00:17:40 (188e) 00:03:23 (193e) 00:43:38 (162e) 00:02:26 (188e) 00:25:30 (142e)
0 105 CANNY Jérôme 00:00:00 M (0e) Master (0e) 00:11:55 (115e) 00:02:14 (168e) 00:37:37 (93e) 00:01:33 (143e) 00:23:44 (115e)
0 107 CHATELUS Sebastien 00:00:00 M (0e) Master (0e) 00:10:37 (87e) 00:01:23 (117e) 00:33:04 (22e) 00:01:06 (80e) 00:21:14 (63e)
0 122 DEMARQUE Travis 00:00:00 M (0e) Senior (0e) 00:15:56 (180e) 00:02:14 (169e) 00:40:47 (127e) 00:01:33 (144e) 00:24:01 (120e)
0 111 DENOYELLE Adrien 00:00:00 M (0e) Senior (0e) 00:16:18 (182e) 00:01:43 (137e) 00:41:02 (128e) 00:02:12 (181e) 00:26:44 (158e)
0 41 DEREGNAUCOURT Hélène 00:00:00 F (0e) Senior (0e) 00:20:43 (195e) 00:02:38 (179e) 00:55:09 (195e) 00:01:33 (142e) 00:26:09 (153e)
0 113 DI LULLO Leo 00:00:00 M (0e) Senior (0e) 00:12:29 (138e) 00:01:49 (142e) 00:37:23 (87e) 00:01:08 (91e) 00:28:31 (172e)
0 102 FOSSATI Bruno 00:00:00 M (0e) Master (0e) 00:17:47 (191e) 00:02:10 (162e) 00:58:05 (196e) 00:01:52 (169e) 00:00:00 (0)
0 44 FRABEL Lola 00:00:00 F (0e) Senior (0e) 00:17:20 (186e) 00:03:19 (192e) 00:51:33 (190e) 00:01:48 (167e) 00:31:20 (184e)
0 43 FRASS Camille 00:00:00 F (0e) Senior (0e) 00:13:47 (159e) 00:02:23 (176e) 00:44:56 (172e) 00:01:54 (172e) 00:28:58 (175e)
0 40 GRARDEL Pauline 00:00:00 F (0e) Senior (0e) 00:15:22 (172e) 00:02:11 (164e) 00:42:23 (144e) 00:01:13 (108e) 00:22:07 (79e)
0 119 GREGOIRE Rémi 00:00:00 M (0e) Senior (0e) 00:12:20 (132e) 00:02:22 (175e) 00:42:30 (147e) 00:01:38 (149e) 00:21:29 (69e)
0 97 GUERY Jean-pierre 00:00:00 M (0e) Master (0e) 00:17:37 (187e) 00:02:10 (163e) 00:42:49 (153e) 00:02:08 (179e) 00:25:02 (132e)
0 114 HADDAD Nasser 00:00:00 M (0e) Senior (0e) 00:18:19 (193e) 00:01:43 (136e) 00:42:40 (150e) 00:01:43 (158e) 00:27:06 (161e)
0 117 LECAILLE Alexandre 00:00:00 M (0e) Senior (0e) 00:17:02 (183e) 00:02:49 (186e) 00:46:28 (179e) 00:01:31 (140e) 00:27:13 (162e)
0 25 LEDENT Christine 00:00:00 F (0e) Master (0e) 00:22:04 (196e) 00:03:39 (194e) 00:52:22 (192e) 00:01:48 (164e) 00:00:00 (0)
0 115 MICHOT Julien 00:00:00 M (0e) Senior (0e) 00:13:37 (154e) 00:02:59 (190e) 00:41:57 (137e) 00:01:37 (148e) 00:27:17 (163e)
0 123 MOREL Ronan 00:00:00 M (0e) Senior (0e) 00:13:38 (155e) 00:04:39 (196e) 00:51:37 (191e) 00:01:57 (173e) 00:23:54 (118e)
0 29 MORSIAU Veronique 00:00:00 F (0e) Master (0e) 00:13:48 (160e) 00:02:18 (172e) 00:45:06 (173e) 00:02:01 (175e) 00:28:26 (171e)
0 36 PAGANO Laura 00:00:00 F (0e) Senior (0e) 00:15:24 (173e) 00:01:55 (145e) 00:41:10 (133e) 00:01:43 (157e) 00:24:22 (125e)
0 116 PICHENOT Guillaume 00:00:00 M (0e) Senior (0e) 00:12:11 (126e) 00:03:05 (191e) 00:39:13 (114e) 00:01:20 (122e) 00:23:09 (104e)
0 99 RITZMANN Pascal 00:00:00 M (0e) Master (0e) 00:12:40 (141e) 00:01:21 (112e) 00:41:49 (136e) 00:01:30 (136e) 00:27:02 (160e)
0 106 TOURNEUX Benoit 00:00:00 M (0e) Master (0e) 00:14:11 (161e) 00:02:02 (151e) 00:38:12 (103e) 00:01:38 (150e) 00:25:22 (139e)
0 30 T’SERVRANCX Dorothée 00:00:00 F (0e) Master (0e) 00:17:46 (190e) 00:02:58 (189e) 00:53:13 (193e) 00:01:11 (105e) 00:28:45 (174e)


Triathlon S Full - Attente 1er pointage
Clt Athlète Nat. Club Temps Sexe Cat Swim T1 Bike T2 Run
0 109 VALLÉE Stéphane 00:00:00 M (0e) Master (0e) 00:00:00 (0) 00:00:00 (0) 00:00:00 (0) 00:00:00 (0) 00:00:00 (0)


Triathlon S Full - Non classé
Clt Athlète Nat. Club Temps Sexe Cat Swim T1 Bike T2 Run
0 42 ALEXANDRE Emmanuelle 00:00:00 F (0e) Senior (0e) 00:00:00 (0) 00:00:00 (0) 00:00:00 (0) 00:00:00 (0) 00:00:00 (0)
0 118 BRESSEL Maxime 00:00:00 M (0e) Senior (0e) 00:00:00 (0) 00:00:00 (0) 00:00:00 (0) 00:00:00 (0) 00:00:00 (0)
0 31 BRZEZINSKI Sonia 00:00:00 F (0e) Master (0e) 00:00:00 (0) 00:00:00 (0) 00:00:00 (0) 00:00:00 (0) 00:00:00 (0)
0 120 CARASSUS Hugo 00:00:00 M (0e) Senior (0e) 00:00:00 (0) 00:00:00 (0) 00:00:00 (0) 00:00:00 (0) 00:00:00 (0)
0 37 COMMELIN Elsa 00:00:00 F (0e) Senior (0e) 00:00:00 (0) 00:00:00 (0) 00:00:00 (0) 00:00:00 (0) 00:00:00 (0)
0 26 DECOTTIGNIES Isabelle 00:00:00 F (0e) Master (0e) 00:00:00 (0) 00:00:00 (0) 00:00:00 (0) 00:00:00 (0) 00:00:00 (0)
0 33 LEBRUN Caroline 00:00:00 F (0e) Master (0e) 00:00:00 (0) 00:00:00 (0) 00:00:00 (0) 00:00:00 (0) 00:00:00 (0)
0 113 OUKAID Mehdi 00:00:00 M (0e) Junior (0e) 00:00:00 (0) 00:00:00 (0) 00:00:00 (0) 00:00:00 (0) 00:00:00 (0)
0 103 VANDERHAEGEN Regis 00:00:00 M (0e) Master (0e) 00:00:00 (0) 00:00:00 (0) 00:00:00 (0) 00:00:00 (0) 00:00:00 (0)
0 104 VERLAINE Fabian 00:00:00 M (0e) Master (0e) 00:00:00 (0) 00:00:00 (0) 00:00:00 (0) 00:00:00 (0) 00:00:00 (0)
0 39 WILLEMS Stéphanie 00:00:00 F (0e) Senior (0e) 00:00:00 (0) 00:00:00 (0) 00:00:00 (0) 00:00:00 (0) 00:00:00 (0)


Triathlon S Full - Classement arrivée
Clt Athlète Nat. Club Temps Sexe Cat Swim T1 Bike T2 Run
0 46 VERHAEGHE Didier ATHLETIC CLUB MARCQUOIS 00:00:00 M (0e) Master (0e) 00:13:36 (153e) 00:02:21 (174e) 00:40:15 (123e) 00:01:30 (137e) 00:23:05 (101e)
0 58 BEAREE Antoine BEAUVAIS TRIATHLON 00:00:00 M (0e) Senior (0e) 00:10:31 (81e) 00:01:35 (129e) 00:35:14 (55e) 00:01:07 (86e) 00:19:50 (41e)
0 1 BONNIEC Isabelle BEAUVAIS TRIATHLON 00:00:00 F (0e) Master (0e) 00:10:36 (86e) 00:01:35 (130e) 00:41:57 (138e) 00:01:13 (107e) 00:26:21 (155e)
0 57 BOURLET Mathieu BEAUVAIS TRIATHLON 00:00:00 M (0e) Senior (0e) 00:09:16 (39e) 00:00:54 (26e) 00:31:46 (9e) 00:00:59 (63e) 00:18:23 (13e)
0 47 BUREAU Frédéric BEAUVAIS TRIATHLON 00:00:00 M (0e) Master (0e) 00:11:13 (95e) 00:01:48 (141e) 00:34:58 (49e) 00:01:18 (118e) 00:22:44 (95e)
0 4 CADAS Cloé BEAUVAIS TRIATHLON 00:00:00 F (0e) Senior (0e) 00:12:12 (127e) 00:01:33 (127e) 00:39:15 (116e) 00:01:08 (94e) 00:23:23 (110e)
0 55 CARPENTIER Julien BEAUVAIS TRIATHLON 00:00:00 M (0e) Senior (0e) 00:11:41 (109e) 00:01:33 (128e) 00:36:28 (76e) 00:01:35 (146e) 00:20:06 (45e)
0 49 CAZIER Gaël BEAUVAIS TRIATHLON 00:00:00 M (0e) Master (0e) 00:11:48 (111e) 00:01:16 (100e) 00:36:31 (77e) 00:01:02 (67e) 00:22:21 (86e)
0 5 CLUZEL Perrine BEAUVAIS TRIATHLON 00:00:00 F (0e) Senior (0e) 00:11:23 (99e) 00:01:12 (89e) 00:39:02 (110e) 00:01:09 (96e) 00:23:36 (112e)
0 51 DEWANCKELE Matthieu BEAUVAIS TRIATHLON 00:00:00 M (0e) Master (0e) 00:09:19 (41e) 00:00:54 (27e) 00:34:14 (37e) 00:00:53 (25e) 00:18:32 (15e)
0 54 EL OUAFI Kamal BEAUVAIS TRIATHLON 00:00:00 M (0e) Master (0e) 00:12:03 (122e) 00:01:56 (148e) 00:35:36 (65e) 00:01:50 (168e) 00:20:20 (52e)
0 3 FAVRESSE Julia BEAUVAIS TRIATHLON 00:00:00 F (0e) Senior (0e) 00:12:58 (146e) 00:01:54 (144e) 00:38:51 (108e) 00:01:41 (156e) 00:23:20 (108e)